Terminal Aerodrome Forecast
Issued by NWS

Home | Current Version | Previous Version | Text Only | Print | Product List | Glossary On
Versions: 1 2 3 4 5 6 7 8 9 10 11 12
782
FTUS42 TJSJ 191751 RRA
TAFJMZ
TAF
TJMZ 191751Z 1918/2018 26009KT P6SM -SHRA VCTS SCT030CB BKN050
     FM192300 VRB04KT P6SM VCTS SCT030CB BKN080
     FM200500 VRB03KT P6SM FEW030 SCT120
     FM201500 29009KT P6SM VCTS SCT030CB BKN080
      AMD NOT SKED=

USA.gov is the U.S. government's official web portal to all federal, state and local government web resources and services.